sensor_id;sensor_type;location;lat;lon;timestamp;pressure;altitude;pressure_sealevel;temperature;humidity
62051;BME280;48008;51.204;6.766;2023-06-05T00:01:59;97336.66;;;3.42;51.99
62051;BME280;48008;51.204;6.766;2023-06-05T00:04:26;97325.53;;;3.40;52.59
62051;BME280;48008;51.204;6.766;2023-06-05T00:06:54;97332.72;;;3.24;52.47
62051;BME280;48008;51.204;6.766;2023-06-05T00:09:21;97332.13;;;3.29;52.92
62051;BME280;48008;51.204;6.766;2023-06-05T00:11:48;97332.84;;;3.16;53.73
62051;BME280;48008;51.204;6.766;2023-06-05T00:14:15;97342.06;;;3.12;54.06
62051;BME280;48008;51.204;6.766;2023-06-05T00:16:42;97337.28;;;3.16;54.43
62051;BME280;48008;51.204;6.766;2023-06-05T00:19:09;97337.69;;;3.19;55.18
62051;BME280;48008;51.204;6.766;2023-06-05T00:21:35;97345.38;;;3.21;55.18
62051;BME280;48008;51.204;6.766;2023-06-05T00:24:02;97343.53;;;2.93;55.68
62051;BME280;48008;51.204;6.766;2023-06-05T00:26:29;97349.22;;;2.97;56.18
62051;BME280;48008;51.204;6.766;2023-06-05T00:28:56;97337.19;;;2.81;56.88
62051;BME280;48008;51.204;6.766;2023-06-05T00:31:23;97337.63;;;2.84;56.71
62051;BME280;48008;51.204;6.766;2023-06-05T00:33:52;97342.53;;;2.73;57.36
62051;BME280;48008;51.204;6.766;2023-06-05T00:36:19;97347.28;;;2.84;57.42
62051;BME280;48008;51.204;6.766;2023-06-05T00:38:49;97343.41;;;2.80;57.53
62051;BME280;48008;51.204;6.766;2023-06-05T00:41:16;97335.63;;;2.86;57.88
62051;BME280;48008;51.204;6.766;2023-06-05T00:43:44;97342.28;;;2.89;59.26
62051;BME280;48008;51.204;6.766;2023-06-05T00:46:11;97345.53;;;2.91;58.45
62051;BME280;48008;51.204;6.766;2023-06-05T00:48:40;97346.53;;;2.90;58.32
62051;BME280;48008;51.204;6.766;2023-06-05T00:51:07;97338.59;;;2.83;59.51
62051;BME280;48008;51.204;6.766;2023-06-05T00:53:37;97337.88;;;2.90;59.25
62051;BME280;48008;51.204;6.766;2023-06-05T00:56:05;97343.38;;;2.73;59.71
62051;BME280;48008;51.204;6.766;2023-06-05T00:58:32;97331.41;;;2.64;60.38
62051;BME280;48008;51.204;6.766;2023-06-05T01:01:00;97336.63;;;2.64;59.99
62051;BME280;48008;51.204;6.766;2023-06-05T01:03:30;97329.16;;;2.61;60.95
62051;BME280;48008;51.204;6.766;2023-06-05T01:06:00;97329.22;;;2.67;61.28
62051;BME280;48008;51.204;6.766;2023-06-05T01:08:31;97341.00;;;2.57;61.01
62051;BME280;48008;51.204;6.766;2023-06-05T01:11:11;97328.09;;;2.55;62.21
62051;BME280;48008;51.204;6.766;2023-06-05T01:13:43;97329.03;;;2.47;62.00
62051;BME280;48008;51.204;6.766;2023-06-05T01:16:14;97326.31;;;2.41;63.71
62051;BME280;48008;51.204;6.766;2023-06-05T01:18:41;97325.88;;;2.37;62.87
62051;BME280;48008;51.204;6.766;2023-06-05T01:21:13;97326.16;;;2.42;63.05
62051;BME280;48008;51.204;6.766;2023-06-05T01:23:41;97325.88;;;2.37;63.36
62051;BME280;48008;51.204;6.766;2023-06-05T01:26:18;97328.50;;;2.37;63.52
62051;BME280;48008;51.204;6.766;2023-06-05T01:28:47;97323.09;;;2.39;63.92
62051;BME280;48008;51.204;6.766;2023-06-05T01:31:18;97329.56;;;2.43;64.66
62051;BME280;48008;51.204;6.766;2023-06-05T01:33:54;97335.38;;;2.23;64.49
62051;BME280;48008;51.204;6.766;2023-06-05T01:36:23;97324.44;;;2.35;64.91
62051;BME280;48008;51.204;6.766;2023-06-05T01:38:52;97328.31;;;2.39;64.93
62051;BME280;48008;51.204;6.766;2023-06-05T01:41:20;97325.00;;;2.30;64.99
62051;BME280;48008;51.204;6.766;2023-06-05T01:43:49;97335.31;;;2.17;66.00
62051;BME280;48008;51.204;6.766;2023-06-05T01:46:18;97319.19;;;2.13;66.19
62051;BME280;48008;51.204;6.766;2023-06-05T01:48:46;97324.59;;;2.11;66.58
62051;BME280;48008;51.204;6.766;2023-06-05T01:51:13;97317.91;;;2.09;67.18
62051;BME280;48008;51.204;6.766;2023-06-05T01:53:40;97308.19;;;2.03;67.24
62051;BME280;48008;51.204;6.766;2023-06-05T01:56:07;97308.66;;;2.06;67.45
62051;BME280;48008;51.204;6.766;2023-06-05T01:58:35;97307.59;;;2.01;68.17
62051;BME280;48008;51.204;6.766;2023-06-05T02:01:03;97307.84;;;2.06;68.03
62051;BME280;48008;51.204;6.766;2023-06-05T02:03:31;97304.88;;;1.94;68.35
62051;BME280;48008;51.204;6.766;2023-06-05T02:05:58;97300.66;;;1.78;68.33
62051;BME280;48008;51.204;6.766;2023-06-05T02:08:25;97305.34;;;1.83;69.13
62051;BME280;48008;51.204;6.766;2023-06-05T02:10:54;97307.22;;;1.89;68.80
62051;BME280;48008;51.204;6.766;2023-06-05T02:13:21;97307.69;;;1.78;69.04
62051;BME280;48008;51.204;6.766;2023-06-05T02:15:50;97303.75;;;1.67;69.80
62051;BME280;48008;51.204;6.766;2023-06-05T02:18:22;97303.09;;;1.65;69.64
62051;BME280;48008;51.204;6.766;2023-06-05T02:20:53;97306.78;;;1.70;69.87
62051;BME280;48008;51.204;6.766;2023-06-05T02:23:22;97302.31;;;1.64;69.75
62051;BME280;48008;51.204;6.766;2023-06-05T02:25:49;97305.44;;;1.75;69.55
62051;BME280;48008;51.204;6.766;2023-06-05T02:28:16;97293.47;;;1.65;69.47
62051;BME280;48008;51.204;6.766;2023-06-05T02:30:42;97294.53;;;1.56;70.29
62051;BME280;48008;51.204;6.766;2023-06-05T02:33:11;97287.78;;;1.47;70.66
62051;BME280;48008;51.204;6.766;2023-06-05T02:35:38;97294.47;;;1.49;70.56
62051;BME280;48008;51.204;6.766;2023-06-05T02:38:08;97288.25;;;1.50;70.13
62051;BME280;48008;51.204;6.766;2023-06-05T02:40:39;97287.44;;;1.50;70.60
62051;BME280;48008;51.204;6.766;2023-06-05T02:43:05;97277.44;;;1.39;70.33
62051;BME280;48008;51.204;6.766;2023-06-05T02:45:33;97284.38;;;1.46;70.73
62051;BME280;48008;51.204;6.766;2023-06-05T02:48:00;97283.13;;;1.42;71.33
62051;BME280;48008;51.204;6.766;2023-06-05T02:50:28;97279.22;;;1.38;71.00
62051;BME280;48008;51.204;6.766;2023-06-05T02:52:56;97282.41;;;1.33;71.24
62051;BME280;48008;51.204;6.766;2023-06-05T02:55:29;97274.84;;;1.39;70.92
62051;BME280;48008;51.204;6.766;2023-06-05T02:57:57;97274.91;;;1.30;71.22
62051;BME280;48008;51.204;6.766;2023-06-05T03:00:33;97272.59;;;1.21;71.36
62051;BME280;48008;51.204;6.766;2023-06-05T03:03:00;97275.03;;;1.22;71.13
62051;BME280;48008;51.204;6.766;2023-06-05T03:05:30;97272.38;;;1.07;72.10
62051;BME280;48008;51.204;6.766;2023-06-05T03:08:03;97271.09;;;1.03;72.20
62051;BME280;48008;51.204;6.766;2023-06-05T03:10:31;97275.88;;;1.14;71.80
62051;BME280;48008;51.204;6.766;2023-06-05T03:12:58;97276.25;;;1.11;71.83
62051;BME280;48008;51.204;6.766;2023-06-05T03:15:29;97281.28;;;0.98;72.80
62051;BME280;48008;51.204;6.766;2023-06-05T03:17:56;97268.88;;;1.00;72.75
62051;BME280;48008;51.204;6.766;2023-06-05T03:20:24;97278.59;;;1.06;73.14
62051;BME280;48008;51.204;6.766;2023-06-05T03:22:51;97278.03;;;1.11;72.78
62051;BME280;48008;51.204;6.766;2023-06-05T03:25:18;97273.47;;;1.13;72.69
62051;BME280;48008;51.204;6.766;2023-06-05T03:27:49;97274.28;;;1.13;72.52
62051;BME280;48008;51.204;6.766;2023-06-05T03:30:17;97275.97;;;1.06;72.86
62051;BME280;48008;51.204;6.766;2023-06-05T03:32:48;97269.38;;;0.81;73.56
62051;BME280;48008;51.204;6.766;2023-06-05T03:35:16;97269.47;;;0.87;74.15
62051;BME280;48008;51.204;6.766;2023-06-05T03:37:44;97270.38;;;0.94;73.73
62051;BME280;48008;51.204;6.766;2023-06-05T03:40:11;97268.31;;;0.90;73.53
62051;BME280;48008;51.204;6.766;2023-06-05T03:42:39;97270.34;;;0.80;74.27
62051;BME280;48008;51.204;6.766;2023-06-05T03:45:06;97269.69;;;0.63;75.04
62051;BME280;48008;51.204;6.766;2023-06-05T03:47:32;97273.47;;;0.60;74.88
62051;BME280;48008;51.204;6.766;2023-06-05T03:50:01;97264.72;;;0.53;74.94
62051;BME280;48008;51.204;6.766;2023-06-05T03:52:33;97263.72;;;0.54;75.16
62051;BME280;48008;51.204;6.766;2023-06-05T03:55:04;97275.19;;;0.68;74.96
62051;BME280;48008;51.204;6.766;2023-06-05T03:57:33;97280.13;;;0.63;75.04
62051;BME280;48008;51.204;6.766;2023-06-05T04:00:00;97261.81;;;0.48;74.90
62051;BME280;48008;51.204;6.766;2023-06-05T04:02:48;97272.09;;;0.49;75.52
62051;BME280;48008;51.204;6.766;2023-06-05T04:05:15;97272.81;;;0.58;75.66
62051;BME280;48008;51.204;6.766;2023-06-05T04:07:42;97275.41;;;0.58;74.70
62051;BME280;48008;51.204;6.766;2023-06-05T04:10:09;97276.72;;;0.62;75.68
62051;BME280;48008;51.204;6.766;2023-06-05T04:12:36;97267.88;;;0.63;75.75
62051;BME280;48008;51.204;6.766;2023-06-05T04:15:05;97270.59;;;0.70;75.85
62051;BME280;48008;51.204;6.766;2023-06-05T04:17:32;97270.50;;;0.63;74.79
62051;BME280;48008;51.204;6.766;2023-06-05T04:19:58;97270.66;;;0.62;75.28
62051;BME280;48008;51.204;6.766;2023-06-05T04:22:27;97269.06;;;0.61;75.27
62051;BME280;48008;51.204;6.766;2023-06-05T04:24:54;97268.88;;;0.62;75.71
62051;BME280;48008;51.204;6.766;2023-06-05T04:27:21;97272.47;;;0.61;76.13
62051;BME280;48008;51.204;6.766;2023-06-05T04:29:47;97271.66;;;0.61;76.87
62051;BME280;48008;51.204;6.766;2023-06-05T04:32:16;97272.13;;;0.64;75.89
62051;BME280;48008;51.204;6.766;2023-06-05T04:34:43;97270.56;;;0.55;75.49
62051;BME280;48008;51.204;6.766;2023-06-05T04:37:10;97272.63;;;0.60;74.64
62051;BME280;48008;51.204;6.766;2023-06-05T04:39:37;97284.53;;;0.62;75.08
62051;BME280;48008;51.204;6.766;2023-06-05T04:42:04;97274.91;;;0.63;75.30
62051;BME280;48008;51.204;6.766;2023-06-05T04:44:40;97284.69;;;0.61;75.32
62051;BME280;48008;51.204;6.766;2023-06-05T04:47:07;97279.13;;;0.64;75.04
62051;BME280;48008;51.204;6.766;2023-06-05T04:49:34;97285.25;;;0.71;75.16
62051;BME280;48008;51.204;6.766;2023-06-05T04:52:01;97287.53;;;0.51;75.34
62051;BME280;48008;51.204;6.766;2023-06-05T04:54:28;97286.69;;;0.59;75.62
62051;BME280;48008;51.204;6.766;2023-06-05T04:56:56;97274.59;;;0.57;74.87
62051;BME280;48008;51.204;6.766;2023-06-05T04:59:22;97282.19;;;0.67;75.51
62051;BME280;48008;51.204;6.766;2023-06-05T05:01:49;97280.13;;;0.63;76.22
62051;BME280;48008;51.204;6.766;2023-06-05T05:04:19;97278.59;;;0.68;75.80
62051;BME280;48008;51.204;6.766;2023-06-05T05:06:46;97280.13;;;0.63;76.52
62051;BME280;48008;51.204;6.766;2023-06-05T05:09:14;97272.47;;;0.61;74.73
62051;BME280;48008;51.204;6.766;2023-06-05T05:11:41;97287.41;;;0.67;74.56
62051;BME280;48008;51.204;6.766;2023-06-05T05:14:08;97282.38;;;0.66;74.69
62051;BME280;48008;51.204;6.766;2023-06-05T05:16:35;97287.97;;;0.77;74.86
62051;BME280;48008;51.204;6.766;2023-06-05T05:19:01;97286.91;;;0.87;75.80
62051;BME280;48008;51.204;6.766;2023-06-05T05:21:28;97283.16;;;0.89;74.44
62051;BME280;48008;51.204;6.766;2023-06-05T05:23:55;97287.94;;;0.86;74.75
62051;BME280;48008;51.204;6.766;2023-06-05T05:26:22;97284.59;;;0.92;74.84
62051;BME280;48008;51.204;6.766;2023-06-05T05:28:49;97284.25;;;0.95;74.40
62051;BME280;48008;51.204;6.766;2023-06-05T05:31:16;97294.59;;;1.03;73.64
62051;BME280;48008;51.204;6.766;2023-06-05T05:33:44;97291.44;;;0.93;73.60
62051;BME280;48008;51.204;6.766;2023-06-05T05:36:12;97293.16;;;1.01;73.96
62051;BME280;48008;51.204;6.766;2023-06-05T05:38:40;97286.16;;;1.16;74.10
62051;BME280;48008;51.204;6.766;2023-06-05T05:41:07;97290.00;;;1.05;73.13
62051;BME280;48008;51.204;6.766;2023-06-05T05:43:34;97286.88;;;1.10;73.55
62051;BME280;48008;51.204;6.766;2023-06-05T05:46:00;97286.44;;;1.06;73.31
62051;BME280;48008;51.204;6.766;2023-06-05T05:48:27;97299.84;;;1.18;73.05
62051;BME280;48008;51.204;6.766;2023-06-05T05:50:54;97289.94;;;1.13;72.69
62051;BME280;48008;51.204;6.766;2023-06-05T05:53:21;97295.19;;;1.28;74.04
62051;BME280;48008;51.204;6.766;2023-06-05T05:55:47;97287.53;;;1.27;73.09
62051;BME280;48008;51.204;6.766;2023-06-05T05:58:14;97300.50;;;1.35;73.30
62051;BME280;48008;51.204;6.766;2023-06-05T06:00:41;97300.50;;;1.35;72.57
62051;BME280;48008;51.204;6.766;2023-06-05T06:03:08;97300.56;;;1.27;72.11
62051;BME280;48008;51.204;6.766;2023-06-05T06:05:35;97302.50;;;1.33;71.94
62051;BME280;48008;51.204;6.766;2023-06-05T06:08:02;97302.03;;;1.44;72.33
62051;BME280;48008;51.204;6.766;2023-06-05T06:10:30;97299.31;;;1.52;71.77
62051;BME280;48008;51.204;6.766;2023-06-05T06:12:57;97306.34;;;1.52;70.98
62051;BME280;48008;51.204;6.766;2023-06-05T06:15:24;97302.66;;;1.61;71.60
62051;BME280;48008;51.204;6.766;2023-06-05T06:17:51;97297.72;;;1.66;71.22
62051;BME280;48008;51.204;6.766;2023-06-05T06:20:17;97302.19;;;1.72;71.47
62051;BME280;48008;51.204;6.766;2023-06-05T06:22:44;97300.03;;;1.76;70.58
62051;BME280;48008;51.204;6.766;2023-06-05T06:25:11;97298.13;;;1.85;69.87
62051;BME280;48008;51.204;6.766;2023-06-05T06:27:39;97302.44;;;1.92;70.21
62051;BME280;48008;51.204;6.766;2023-06-05T06:30:06;97300.09;;;1.98;69.27
62051;BME280;48008;51.204;6.766;2023-06-05T06:32:33;97299.47;;;1.96;69.30
62051;BME280;48008;51.204;6.766;2023-06-05T06:35:00;97306.84;;;2.07;69.92
62051;BME280;48008;51.204;6.766;2023-06-05T06:37:27;97305.69;;;2.09;69.21
62051;BME280;48008;51.204;6.766;2023-06-05T06:39:54;97309.81;;;2.19;69.18
62051;BME280;48008;51.204;6.766;2023-06-05T06:42:21;97318.53;;;2.26;68.78
62051;BME280;48008;51.204;6.766;2023-06-05T06:44:58;97318.78;;;2.31;69.20
62051;BME280;48008;51.204;6.766;2023-06-05T06:47:25;97306.13;;;2.35;68.26
62051;BME280;48008;51.204;6.766;2023-06-05T06:49:52;97308.03;;;2.41;68.03
62051;BME280;48008;51.204;6.766;2023-06-05T06:52:19;97314.50;;;2.45;67.15
62051;BME280;48008;51.204;6.766;2023-06-05T06:54:47;97317.97;;;2.52;68.08
62051;BME280;48008;51.204;6.766;2023-06-05T06:57:14;97314.44;;;2.60;67.71
62051;BME280;48008;51.204;6.766;2023-06-05T06:59:41;97328.03;;;2.70;66.82
62051;BME280;48008;51.204;6.766;2023-06-05T07:02:10;97321.81;;;2.71;66.76
62051;BME280;48008;51.204;6.766;2023-06-05T07:04:37;97320.59;;;2.74;65.63
62051;BME280;48008;51.204;6.766;2023-06-05T07:07:05;97323.28;;;2.80;65.95
62051;BME280;48008;51.204;6.766;2023-06-05T07:09:31;97317.47;;;2.85;65.68
62051;BME280;48008;51.204;6.766;2023-06-05T07:11:58;97322.59;;;2.93;64.73
62051;BME280;48008;51.204;6.766;2023-06-05T07:14:31;97325.69;;;3.03;65.76
62051;BME280;48008;51.204;6.766;2023-06-05T07:17:01;97325.13;;;3.08;65.30
62051;BME280;48008;51.204;6.766;2023-06-05T07:19:30;97324.19;;;3.16;65.23
62051;BME280;48008;51.204;6.766;2023-06-05T07:21:59;97321.84;;;3.28;64.41
62051;BME280;48008;51.204;6.766;2023-06-05T07:24:27;97324.06;;;3.31;63.69
62051;BME280;48008;51.204;6.766;2023-06-05T07:26:55;97326.75;;;3.37;63.68
62051;BME280;48008;51.204;6.766;2023-06-05T07:29:23;97328.16;;;3.40;62.39
62051;BME280;48008;51.204;6.766;2023-06-05T07:31:51;97329.84;;;3.48;63.22
62051;BME280;48008;51.204;6.766;2023-06-05T07:34:18;97321.34;;;3.45;62.30
62051;BME280;48008;51.204;6.766;2023-06-05T07:36:46;97319.81;;;3.58;62.19
62051;BME280;48008;51.204;6.766;2023-06-05T07:39:14;97324.72;;;3.68;61.96
62051;BME280;48008;51.204;6.766;2023-06-05T07:41:41;97327.97;;;3.70;60.97
62051;BME280;48008;51.204;6.766;2023-06-05T07:44:11;97323.75;;;3.75;61.75
62051;BME280;48008;51.204;6.766;2023-06-05T07:46:40;97324.19;;;3.85;61.45
62051;BME280;48008;51.204;6.766;2023-06-05T07:49:07;97328.25;;;3.88;60.02
62051;BME280;48008;51.204;6.766;2023-06-05T07:51:36;97328.47;;;3.93;60.64
62051;BME280;48008;51.204;6.766;2023-06-05T07:54:04;97327.72;;;4.06;60.55
62051;BME280;48008;51.204;6.766;2023-06-05T07:56:31;97336.84;;;4.17;61.36
62051;BME280;48008;51.204;6.766;2023-06-05T07:59:00;97338.66;;;4.16;58.35
62051;BME280;48008;51.204;6.766;2023-06-05T08:01:30;97326.16;;;4.18;58.97
62051;BME280;48008;51.204;6.766;2023-06-05T08:03:57;97326.56;;;4.22;58.85
62051;BME280;48008;51.204;6.766;2023-06-05T08:06:24;97333.09;;;4.39;57.81
62051;BME280;48008;51.204;6.766;2023-06-05T08:08:51;97324.00;;;4.42;58.96
62051;BME280;48008;51.204;6.766;2023-06-05T08:11:18;97323.44;;;4.53;57.78
62051;BME280;48008;51.204;6.766;2023-06-05T08:13:44;97325.25;;;4.59;56.87
62051;BME280;48008;51.204;6.766;2023-06-05T08:16:12;97321.63;;;4.60;56.64
62051;BME280;48008;51.204;6.766;2023-06-05T08:18:39;97318.41;;;4.72;56.98
62051;BME280;48008;51.204;6.766;2023-06-05T08:21:06;97327.50;;;4.89;56.94
62051;BME280;48008;51.204;6.766;2023-06-05T08:23:33;97324.09;;;5.09;56.55
62051;BME280;48008;51.204;6.766;2023-06-05T08:25:59;97326.72;;;5.15;55.13
62051;BME280;48008;51.204;6.766;2023-06-05T08:28:26;97322.28;;;5.16;54.94
62051;BME280;48008;51.204;6.766;2023-06-05T08:30:53;97322.06;;;5.31;54.40
62051;BME280;48008;51.204;6.766;2023-06-05T08:33:20;97316.59;;;5.39;55.14
62051;BME280;48008;51.204;6.766;2023-06-05T08:35:47;97318.41;;;5.52;54.14
62051;BME280;48008;51.204;6.766;2023-06-05T08:38:14;97324.06;;;5.49;53.25
62051;BME280;48008;51.204;6.766;2023-06-05T08:40:41;97323.25;;;5.55;52.20
62051;BME280;48008;51.204;6.766;2023-06-05T08:43:09;97315.31;;;5.68;53.39
62051;BME280;48008;51.204;6.766;2023-06-05T08:45:36;97318.75;;;5.82;51.18
62051;BME280;48008;51.204;6.766;2023-06-05T08:48:05;97317.72;;;5.83;51.38
62051;BME280;48008;51.204;6.766;2023-06-05T08:50:32;97311.78;;;5.94;51.39
62051;BME280;48008;51.204;6.766;2023-06-05T08:53:00;97317.06;;;6.08;49.33
62051;BME280;48008;51.204;6.766;2023-06-05T08:55:26;97326.28;;;6.24;49.48
62051;BME280;48008;51.204;6.766;2023-06-05T08:57:54;97325.88;;;6.27;49.09
62051;BME280;48008;51.204;6.766;2023-06-05T09:00:21;97322.38;;;6.33;48.99
62051;BME280;48008;51.204;6.766;2023-06-05T09:02:48;97309.78;;;6.42;47.82
62051;BME280;48008;51.204;6.766;2023-06-05T09:05:16;97313.84;;;6.44;48.17
62051;BME280;48008;51.204;6.766;2023-06-05T09:07:43;97314.63;;;6.51;48.49
62051;BME280;48008;51.204;6.766;2023-06-05T09:10:27;97300.59;;;6.58;47.94
62051;BME280;48008;51.204;6.766;2023-06-05T09:12:56;97308.16;;;6.79;48.76
62051;BME280;48008;51.204;6.766;2023-06-05T09:15:25;97309.00;;;6.73;48.48
62051;BME280;48008;51.204;6.766;2023-06-05T09:18:09;97305.72;;;6.78;48.41
62051;BME280;48008;51.204;6.766;2023-06-05T09:20:40;97314.88;;;7.00;48.11
62051;BME280;48008;51.204;6.766;2023-06-05T09:23:24;97308.00;;;7.24;45.62
62051;BME280;48008;51.204;6.766;2023-06-05T09:25:54;97316.13;;;7.48;45.25
62051;BME280;48008;51.204;6.766;2023-06-05T09:28:21;97314.00;;;7.57;46.34
62051;BME280;48008;51.204;6.766;2023-06-05T09:31:04;97313.75;;;7.40;45.45
62051;BME280;48008;51.204;6.766;2023-06-05T09:33:32;97303.91;;;7.28;46.32
62051;BME280;48008;51.204;6.766;2023-06-05T09:36:04;97300.28;;;7.48;46.67
62051;BME280;48008;51.204;6.766;2023-06-05T09:38:32;97303.72;;;7.48;45.29
62051;BME280;48008;51.204;6.766;2023-06-05T09:41:01;97303.56;;;7.43;44.43
62051;BME280;48008;51.204;6.766;2023-06-05T09:43:28;97312.22;;;7.69;43.52
62051;BME280;48008;51.204;6.766;2023-06-05T09:45:55;97304.69;;;7.73;42.77
62051;BME280;48008;51.204;6.766;2023-06-05T09:48:22;97309.84;;;7.86;44.92
62051;BME280;48008;51.204;6.766;2023-06-05T09:50:48;97316.88;;;7.92;41.52
62051;BME280;48008;51.204;6.766;2023-06-05T09:53:17;97317.91;;;8.10;41.04
62051;BME280;48008;51.204;6.766;2023-06-05T09:55:47;97319.38;;;8.36;41.78
62051;BME280;48008;51.204;6.766;2023-06-05T09:58:14;97312.25;;;8.55;42.50
62051;BME280;48008;51.204;6.766;2023-06-05T10:00:42;97313.22;;;8.60;42.02
62051;BME280;48008;51.204;6.766;2023-06-05T10:03:14;97303.09;;;8.57;41.59
62051;BME280;48008;51.204;6.766;2023-06-05T10:05:44;97304.81;;;8.63;42.09
62051;BME280;48008;51.204;6.766;2023-06-05T10:08:12;97307.50;;;8.45;38.48
62051;BME280;48008;51.204;6.766;2023-06-05T10:10:41;97300.78;;;8.61;40.46
62051;BME280;48008;51.204;6.766;2023-06-05T10:13:08;97306.84;;;8.92;41.05
62051;BME280;48008;51.204;6.766;2023-06-05T10:15:38;97300.41;;;8.99;41.51
62051;BME280;48008;51.204;6.766;2023-06-05T10:18:08;97302.84;;;9.36;38.39
62051;BME280;48008;51.204;6.766;2023-06-05T10:20:35;97306.31;;;9.49;37.30
62051;BME280;48008;51.204;6.766;2023-06-05T10:23:04;97297.09;;;9.63;36.52
62051;BME280;48008;51.204;6.766;2023-06-05T10:25:32;97311.13;;;9.75;35.09
62051;BME280;48008;51.204;6.766;2023-06-05T10:28:39;97310.91;;;9.65;33.39
62051;BME280;48008;51.204;6.766;2023-06-05T10:31:20;97307.09;;;9.26;32.50
62051;BME280;48008;51.204;6.766;2023-06-05T10:34:14;97310.31;;;9.51;31.07
62051;BME280;48008;51.204;6.766;2023-06-05T10:37:01;97316.09;;;9.72;31.04
62051;BME280;48008;51.204;6.766;2023-06-05T10:39:30;97308.88;;;10.08;30.53
62051;BME280;48008;51.204;6.766;2023-06-05T10:41:57;97306.47;;;9.94;30.97
62051;BME280;48008;51.204;6.766;2023-06-05T10:44:41;97308.81;;;9.67;29.79
62051;BME280;48008;51.204;6.766;2023-06-05T10:50:18;97309.59;;;9.91;29.61
62051;BME280;48008;51.204;6.766;2023-06-05T10:52:48;97309.72;;;9.85;30.25
62051;BME280;48008;51.204;6.766;2023-06-05T10:55:15;97307.19;;;9.78;30.21
62051;BME280;48008;51.204;6.766;2023-06-05T10:58:03;97293.75;;;9.79;31.63
62051;BME280;48008;51.204;6.766;2023-06-05T11:00:31;97295.94;;;10.23;32.33
62051;BME280;48008;51.204;6.766;2023-06-05T11:02:57;97312.97;;;10.27;32.37
62051;BME280;48008;51.204;6.766;2023-06-05T11:05:27;97304.97;;;9.98;31.55
62051;BME280;48008;51.204;6.766;2023-06-05T11:08:12;97303.09;;;10.11;31.80
62051;BME280;48008;51.204;6.766;2023-06-05T11:11:02;97306.56;;;10.11;31.29
62051;BME280;48008;51.204;6.766;2023-06-05T11:13:57;97296.84;;;9.88;31.00
62051;BME280;48008;51.204;6.766;2023-06-05T11:16:27;97290.47;;;10.01;32.37
62051;BME280;48008;51.204;6.766;2023-06-05T11:18:54;97299.28;;;10.18;32.34
62051;BME280;48008;51.204;6.766;2023-06-05T11:21:21;97294.75;;;10.43;32.95
62051;BME280;48008;51.204;6.766;2023-06-05T11:24:15;97290.19;;;10.55;31.32
62051;BME280;48008;51.204;6.766;2023-06-05T11:26:43;97291.66;;;10.22;31.23
62051;BME280;48008;51.204;6.766;2023-06-05T11:29:12;97288.94;;;10.46;32.15
62051;BME280;48008;51.204;6.766;2023-06-05T11:31:39;97290.50;;;10.30;31.43
62051;BME280;48008;51.204;6.766;2023-06-05T11:34:12;97296.06;;;10.57;31.67
62051;BME280;48008;51.204;6.766;2023-06-05T11:36:40;97283.00;;;10.84;31.52
62051;BME280;48008;51.204;6.766;2023-06-05T11:39:06;97293.84;;;10.83;30.93
62051;BME280;48008;51.204;6.766;2023-06-05T11:41:34;97287.03;;;11.04;30.99
62051;BME280;48008;51.204;6.766;2023-06-05T11:44:01;97296.66;;;10.93;31.42
62051;BME280;48008;51.204;6.766;2023-06-05T11:46:36;97290.97;;;11.18;30.78
62051;BME280;48008;51.204;6.766;2023-06-05T11:49:04;97286.84;;;11.27;30.64
62051;BME280;48008;51.204;6.766;2023-06-05T11:51:33;97285.50;;;11.08;31.12
62051;BME280;48008;51.204;6.766;2023-06-05T11:54:01;97282.28;;;11.23;30.91
62051;BME280;48008;51.204;6.766;2023-06-05T11:56:28;97279.47;;;10.95;30.84
62051;BME280;48008;51.204;6.766;2023-06-05T11:58:56;97286.94;;;11.16;30.88
62051;BME280;48008;51.204;6.766;2023-06-05T12:01:22;97285.44;;;11.03;30.52
62051;BME280;48008;51.204;6.766;2023-06-05T12:04:07;97274.63;;;11.09;31.12
62051;BME280;48008;51.204;6.766;2023-06-05T12:06:44;97288.53;;;11.50;31.25
62051;BME280;48008;51.204;6.766;2023-06-05T12:09:14;97279.66;;;11.62;29.44
62051;BME280;48008;51.204;6.766;2023-06-05T12:11:42;97286.97;;;11.71;29.94
62051;BME280;48008;51.204;6.766;2023-06-05T12:14:12;97282.25;;;11.79;30.18
62051;BME280;48008;51.204;6.766;2023-06-05T12:16:40;97282.88;;;11.86;30.20
62051;BME280;48008;51.204;6.766;2023-06-05T12:19:12;97282.81;;;11.81;30.50
62051;BME280;48008;51.204;6.766;2023-06-05T12:21:41;97295.91;;;12.04;30.64
62051;BME280;48008;51.204;6.766;2023-06-05T12:24:08;97272.78;;;11.66;30.25
62051;BME280;48008;51.204;6.766;2023-06-05T12:26:53;97285.28;;;12.04;29.69
62051;BME280;48008;51.204;6.766;2023-06-05T12:29:24;97285.38;;;12.15;30.77
62051;BME280;48008;51.204;6.766;2023-06-05T12:31:52;97278.16;;;12.10;30.40
62051;BME280;48008;51.204;6.766;2023-06-05T12:34:19;97270.13;;;11.66;29.78
62051;BME280;48008;51.204;6.766;2023-06-05T12:37:30;97271.69;;;11.62;30.38
62051;BME280;48008;51.204;6.766;2023-06-05T12:39:58;97271.44;;;11.63;30.45
62051;BME280;48008;51.204;6.766;2023-06-05T12:42:25;97269.94;;;11.50;30.28
62051;BME280;48008;51.204;6.766;2023-06-05T12:44:54;97263.41;;;11.80;31.54
62051;BME280;48008;51.204;6.766;2023-06-05T12:47:21;97261.38;;;11.87;30.60
62051;BME280;48008;51.204;6.766;2023-06-05T12:49:48;97267.53;;;12.10;30.26
62051;BME280;48008;51.204;6.766;2023-06-05T12:52:15;97263.13;;;12.21;30.42
62051;BME280;48008;51.204;6.766;2023-06-05T12:54:41;97262.84;;;12.17;30.22
62051;BME280;48008;51.204;6.766;2023-06-05T12:57:08;97256.63;;;12.34;30.05
62051;BME280;48008;51.204;6.766;2023-06-05T12:59:37;97257.25;;;12.46;29.70
62051;BME280;48008;51.204;6.766;2023-06-05T13:02:03;97272.47;;;12.51;30.04
62051;BME280;48008;51.204;6.766;2023-06-05T13:04:30;97254.16;;;12.27;29.83
62051;BME280;48008;51.204;6.766;2023-06-05T13:06:59;97251.63;;;12.37;29.71
62051;BME280;48008;51.204;6.766;2023-06-05T13:09:27;97261.72;;;12.40;30.46
62051;BME280;48008;51.204;6.766;2023-06-05T13:11:54;97258.63;;;12.76;30.14
62051;BME280;48008;51.204;6.766;2023-06-05T13:14:21;97263.88;;;12.71;28.64
62051;BME280;48008;51.204;6.766;2023-06-05T13:16:47;97253.53;;;12.74;29.22
62051;BME280;48008;51.204;6.766;2023-06-05T13:19:15;97250.28;;;12.67;28.08
62051;BME280;48008;51.204;6.766;2023-06-05T13:21:41;97252.81;;;12.84;29.18
62051;BME280;48008;51.204;6.766;2023-06-05T13:24:08;97263.25;;;12.91;28.32